Friday, January 18, 2019, 3:29 AM EST
Back to Local

KFMH, Otis Air National Guard Base

Location: Mashpee, MA, United States Lat: 41.65
Local Time: 3:29 AM EST ( 8:29 GMT) Lon: -70.517
Time Zone: US/Eastern Elev: 131 ft

Show me the last for .
Show Decoded

2019-01-18 03:15 METAR KFMH 180815Z AUTO 01005KT 10SM FEW042 SCT048 OVC055 M03/M08 A3022 RMK AO2
                 =
2019-01-18 02:55 METAR KFMH 180755Z AUTO 35005KT 10SM FEW037 BKN046 OVC055 M03/M09 A3024 RMK AO2
                 =
2019-01-18 02:35 METAR KFMH 180735Z AUTO 00000KT 10SM FEW044 OVC055 M04/M09 A3024 RMK AO2 =
2019-01-18 02:15 METAR KFMH 180715Z AUTO 05006KT 10SM BKN060 OVC070 M04/M09 A3024 RMK AO2 =
2019-01-18 01:55 METAR KFMH 180655Z AUTO 06003KT 10SM BKN075 OVC100 M04/M09 A3025 RMK AO2 =
2019-01-18 01:35 METAR KFMH 180635Z AUTO 05004KT 10SM FEW065 FEW075 OVC100 M04/M10 A3026 RMK AO2
                 =
2019-01-18 01:15 METAR KFMH 180615Z AUTO 06005KT 10SM OVC075 M04/M10 A3026 RMK AO2 =
2019-01-18 00:55 METAR KFMH 180555Z AUTO 05004KT 10SM OVC070 M04/M10 A3027 RMK AO2 =
2019-01-18 00:35 METAR KFMH 180535Z AUTO 05006KT 10SM OVC075 M05/M10 A3027 RMK AO2 =
2019-01-18 00:15 METAR KFMH 180515Z AUTO 03004KT 10SM BKN075 OVC110 M05/M11 A3029 RMK AO2 =
2019-01-17 23:55 METAR KFMH 180455Z AUTO 00000KT 10SM BKN110 M06/M11 A3031 RMK AO2 =
2019-01-17 23:35 METAR KFMH 180435Z AUTO 00000KT 10SM BKN110 M05/M11 A3031 RMK AO2 =
2019-01-17 23:15 METAR KFMH 180415Z AUTO 04005KT 10SM SCT120 M06/M11 A3032 RMK AO2 =
2019-01-17 22:55 METAR KFMH 180355Z AUTO 06004KT 10SM SCT110 M06/M11 A3033 RMK AO2 =
2019-01-17 22:35 METAR KFMH 180335Z AUTO 05005KT 10SM SCT120 M06/M11 A3033 RMK AO2 =
2019-01-17 22:15 METAR KFMH 180315Z AUTO 06005KT 10SM BKN120 M06/M11 A3033 RMK AO2 =
2019-01-17 21:55 METAR KFMH 180255Z AUTO 06004KT 10SM OVC110 M06/M11 A3033 RMK AO2 =
2019-01-17 21:35 METAR KFMH 180235Z AUTO 05006KT 10SM BKN110 M06/M11 A3033 RMK AO2 =
2019-01-17 21:15 METAR KFMH 180215Z AUTO 06005KT 10SM BKN110 M06/M11 A3033 RMK AO2 =
2019-01-17 20:55 METAR KFMH 180155Z AUTO 06005KT 10SM BKN110 M06/M12 A3033 RMK AO2 =
2019-01-17 20:35 METAR KFMH 180135Z AUTO 06005KT 10SM SCT110 M06/M12 A3034 RMK AO2 =
2019-01-17 20:15 METAR KFMH 180115Z AUTO 00000KT 10SM SCT100 SCT120 M06/M13 A3035 RMK AO2 =
2019-01-17 19:55 METAR KFMH 180055Z AUTO 05003KT 10SM SCT090 BKN110 M06/M13 A3035 RMK AO2 =
2019-01-17 19:35 METAR KFMH 180035Z AUTO 00000KT 10SM BKN095 OVC120 M06/M13 A3036 RMK AO2 =
2019-01-17 19:15 METAR KFMH 180015Z AUTO 07004KT 10SM OVC110 M06/M13 A3035 RMK AO2 =
2019-01-17 18:55 METAR KFMH 172355Z AUTO 09004KT 10SM BKN110 M06/M13 A3035 RMK AO2 =
2019-01-17 18:35 METAR KFMH 172335Z AUTO 09004KT 10SM FEW120 M06/M13 A3035 RMK AO2 =
2019-01-17 18:15 METAR KFMH 172315Z AUTO 00000KT 10SM FEW120 M06/M14 A3035 RMK AO2 =
2019-01-17 17:55 METAR KFMH 172255Z AUTO 00000KT 10SM FEW120 M06/M14 A3035 RMK AO2 =
2019-01-17 17:35 METAR KFMH 172235Z AUTO 10004KT 10SM CLR M06/M14 A3035 RMK AO2 =
2019-01-17 17:15 METAR KFMH 172215Z AUTO 06004KT 10SM CLR M06/M14 A3034 RMK AO2 =
2019-01-17 16:55 METAR KFMH 172155Z AUTO 07003KT 10SM CLR M06/M15 A3035 RMK AO2 =
2019-01-17 16:35 METAR KFMH 172135Z AUTO 08005KT 10SM CLR M06/M15 A3035 RMK AO2 =
2019-01-17 16:15 METAR KFMH 172115Z AUTO 06006KT 10SM CLR M05/M15 A3034 RMK AO2 =
2019-01-17 15:55 METAR KFMH 172055Z AUTO 06006KT 10SM CLR M04/M16 A3035 RMK AO2 =
2019-01-17 15:35 METAR KFMH 172035Z AUTO 05007KT 10SM CLR M04/M17 A3034 RMK AO2 =
2019-01-17 15:15 METAR KFMH 172015Z AUTO 04006KT 10SM CLR M04/M18 A3034 RMK AO2 =
2019-01-17 14:55 METAR KFMH 171955Z VRB03KT 10SM SKC M03/M19 A3035 RMK AO2 =
2019-01-17 14:35 METAR KFMH 171935Z AUTO 05005KT 10SM CLR M03/M18 A3035 RMK AO2 =
2019-01-17 14:15 METAR KFMH 171915Z AUTO 04009KT 10SM CLR M03/M18 A3035 RMK AO2 =
2019-01-17 13:55 METAR KFMH 171855Z 06005G11KT 10SM SKC M03/M18 A3035 RMK AO2 =
2019-01-17 13:35 METAR KFMH 171835Z AUTO 04008KT 10SM CLR M03/M18 A3035 RMK AO2 =
2019-01-17 13:15 METAR KFMH 171815Z AUTO 05007KT 10SM CLR M03/M19 A3035 RMK AO2 =
2019-01-17 12:55 METAR KFMH 171755Z VRB06KT 10SM CLR M03/M20 A3035 RMK AO2 =
2019-01-17 12:35 METAR KFMH 171735Z 02006G11KT 10SM CLR M03/M19 A3036 RMK AO2 =
2019-01-17 12:15 METAR KFMH 171715Z AUTO VRB05G11KT 10SM CLR M03/M19 A3037 RMK AO2 =
2019-01-17 11:55 METAR KFMH 171655Z AUTO 02008KT 350V060 10SM CLR M04/M20 A3037 RMK AO2 =
2019-01-17 11:35 METAR KFMH 171635Z AUTO 03008KT 10SM CLR M04/M19 A3038 RMK AO2 =
2019-01-17 11:15 METAR KFMH 171615Z AUTO 04008KT 10SM CLR M04/M19 A3038 RMK AO2 =
2019-01-17 10:55 METAR KFMH 171555Z AUTO 03009G14KT 10SM CLR M04/M20 A3039 RMK AO2 =
2019-01-17 10:35 METAR KFMH 171535Z AUTO 36006G11KT 10SM CLR M05/M20 A3040 RMK AO2 =
2019-01-17 10:15 METAR KFMH 171515Z AUTO 01008KT 320V040 10SM CLR M05/M20 A3040 RMK AO2 =
2019-01-17 09:55 METAR KFMH 171455Z AUTO VRB06KT 10SM CLR M05/M20 A3040 RMK AO2 =
2019-01-17 09:35 METAR KFMH 171435Z AUTO 35009KT 10SM CLR M06/M19 A3039 RMK AO2 =
2019-01-17 09:15 METAR KFMH 171415Z AUTO 33008KT 10SM CLR M06/M18 A3039 RMK AO2 =
2019-01-17 08:55 METAR KFMH 171355Z AUTO VRB06G11KT 10SM CLR M06/M17 A3038 RMK AO2 =
2019-01-17 08:35 METAR KFMH 171335Z AUTO 35005G10KT 10SM CLR M06/M17 A3037 RMK AO2 =
2019-01-17 08:15 METAR KFMH 171315Z AUTO 35007KT 10SM CLR M06/M17 A3036 RMK AO2 =
2019-01-17 07:55 METAR KFMH 171255Z AUTO 32007G16KT 10SM CLR M07/M17 A3034 RMK AO2 =
2019-01-17 07:35 METAR KFMH 171235Z AUTO 36006KT 10SM CLR M07/M16 A3033 RMK AO2 =
2019-01-17 07:15 METAR KFMH 171215Z AUTO 36006G11KT 10SM CLR M07/M16 A3033 RMK AO2 =
2019-01-17 06:55 METAR KFMH 171155Z AUTO 34006KT 10SM CLR M07/M15 A3032 RMK AO2 =
2019-01-17 06:35 METAR KFMH 171135Z AUTO 34005KT 10SM CLR M07/M15 A3031 RMK AO2 =
2019-01-17 06:15 METAR KFMH 171115Z AUTO 35006KT 10SM CLR M06/M15 A3029 RMK AO2 =
2019-01-17 05:55 METAR KFMH 171055Z AUTO 35005KT 10SM CLR M06/M15 A3029 RMK AO2 =
2019-01-17 05:35 METAR KFMH 171035Z AUTO 33006G12KT 10SM CLR M05/M14 A3028 RMK AO2 =
2019-01-17 05:15 METAR KFMH 171015Z AUTO 35005KT 10SM CLR M05/M13 A3027 RMK AO2 =
2019-01-17 04:55 METAR KFMH 170955Z AUTO 34005KT 10SM CLR M04/M13 A3026 RMK AO2 =
2019-01-17 04:35 METAR KFMH 170935Z AUTO 33007G12KT 10SM CLR M04/M13 A3025 RMK AO2 =
2019-01-17 04:15 METAR KFMH 170915Z AUTO 33008G15KT 10SM CLR M04/M13 A3024 RMK AO2 =
2019-01-17 03:55 METAR KFMH 170855Z AUTO 33007G18KT 10SM CLR M03/M12 A3023 RMK AO2 =
2019-01-17 03:35 METAR KFMH 170835Z AUTO 32009KT 10SM CLR M03/M11 A3023 RMK AO2 =

Support USWX by starting your Amazon purchase here.